Detall de PIREP

Printer-friendly versionPDF version

[2013/07/02 09:51:00]
Flight IATA:CT2104
Pilot Number:042
Company ICAO:CAT
Aircraft Type:F70/A
PAX:16
Aircraft Registration:PFJ
Departing Airport: LEVC
Destination Airport: LEBB
Alternate Airport:LEMD
Online: VATSIM
Route:CENTA A33 CJN R10 PPN G23 CEGAM
Flight Level:F240
No Slew and time accel
No pause
Crash detect
Detect pilot in Cockpit between each 30 and 45 minutes
09:51 Zero fuel Weight: 72667 Lbs, Fuel Weight: 22663 Lbs
09:51 VATSIM:LEVC 020930Z 13006KT 070V200 CAVOK 26/17 Q1017 NOSIG
09:51 VATSIM:LEBB 020930Z 00000KT 4000 BR SCT012 BKN015 19/17 Q1016 TEMPO 2500 BR
09:51 VOICE CATALONIAN
10:02 Parking Brakes off
10:07 Take-off
10:07 Take off Weight: 94939 Lbs
10:07 Wind: 210º @ 006 Knots Heading: 118º
10:07 POS N39º 29´ 13´´ W000º 28´ 31´´
10:07 Gear Up: 157 Knots
10:07 Flaps:2 at 157 Knots
10:07 Flaps:1 at 162 Knots
10:07 Flaps:0 at 177 Knots
10:20 TOC
10:20 Fuel Weight: 20525 Lb
10:22 Wind:315º@047 Knots Heading: 300º Ground Speed: 344 Knots Altitude 24130 ft
10:37 Wind:295º@033 Knots Heading: 352º Ground Speed: 433 Knots Altitude 24137 ft
10:49 TOD
10:49 Fuel Weight: 17752 Lb
10:52 Wind:312º@035 Knots Heading: 311º Ground Speed: 278 Knots Altitude 18188 ft
10:52 Flaps:1 at 240 Knots
11:04 Flaps:2 at 196 Knots
11:06 Gear Down: 192 Knots
11:07 Wind:224º@022 Knots Heading: 289º Ground Speed: 188 Knots Altitude 1633 ft
11:07 Flaps:3 at 190 Knots
11:08 TouchDown:Rate -433 ft/min Speed: 143 Knots
11:08 VATSIM:LEBB 021100Z 31003KT 290V350 4000 BR SCT008 BKN012 19/17 Q1017 TEMPO 6000 NSW
11:08 Land
11:08 Wind:228º@019 Knots
11:08 Heading: 309º
11:08 Flight Duration: 01:01
11:08 Landing Weight: 89480 Lbs
11:08 POS N43º 18´ 25´´ W002º 55´ 37´´
11:14 Parking brakes on
11:14 Block to Block Duration: 01:12
11:14 Final Fuel: 16578 Lbls
11:14 Spent Fuel: 6084 Lbls
11:14 Flight Length: 338 NM
11:14 TOD Land Length: 74 NM

Exportar CSV

Powered by Drupal - Modified by Danger4k